createdAt,value
2023-01-04T00:01:34.223Z,6.54
2023-01-04T00:04:02.238Z,6.52
2023-01-04T00:06:30.283Z,6.43
2023-01-04T00:08:58.054Z,6.41
2023-01-04T00:11:25.977Z,6.38
2023-01-04T00:13:54.690Z,6.33
2023-01-04T00:16:24.102Z,6.29
2023-01-04T00:18:52.453Z,6.29
2023-01-04T00:21:27.693Z,6.27
2023-01-04T00:23:57.418Z,6.26
2023-01-04T00:26:27.023Z,6.26
2023-01-04T00:28:56.303Z,6.26
2023-01-04T00:31:24.420Z,6.26
2023-01-04T00:33:54.819Z,6.25
2023-01-04T00:36:22.687Z,6.26
2023-01-04T00:39:08.964Z,6.25
2023-01-04T00:42:03.416Z,6.25
2023-01-04T00:44:31.546Z,6.22
2023-01-04T00:47:00.159Z,6.21
2023-01-04T00:49:28.363Z,6.23
2023-01-04T00:51:56.137Z,6.24
2023-01-04T00:54:24.113Z,6.24
2023-01-04T00:56:52.359Z,6.24
2023-01-04T00:59:20.932Z,6.21
2023-01-04T01:01:49.166Z,6.21
2023-01-04T01:04:18.739Z,6.24
2023-01-04T01:06:46.584Z,6.28
2023-01-04T01:09:14.318Z,6.26
2023-01-04T01:11:42.548Z,6.28
2023-01-04T01:14:11.212Z,6.29
2023-01-04T01:16:54.340Z,6.29
2023-01-04T01:19:22.521Z,6.29
2023-01-04T01:21:50.340Z,6.33
2023-01-04T01:24:19.233Z,6.34
2023-01-04T01:26:47.061Z,6.36
2023-01-04T01:29:14.955Z,6.33
2023-01-04T01:31:42.981Z,6.35
2023-01-04T01:34:10.826Z,6.37
2023-01-04T01:36:38.564Z,6.40
2023-01-04T01:39:07.131Z,6.41
2023-01-04T01:41:35.717Z,6.43
2023-01-04T01:44:03.361Z,6.46
2023-01-04T01:46:44.023Z,6.48
2023-01-04T01:49:14.635Z,6.52
2023-01-04T01:51:42.736Z,6.52
2023-01-04T01:54:14.173Z,6.54
2023-01-04T01:56:42.333Z,6.55
2023-01-04T01:59:10.815Z,6.59
2023-01-04T02:01:38.760Z,6.64
2023-01-04T02:04:06.827Z,6.66
2023-01-04T02:06:36.836Z,6.66
2023-01-04T02:09:04.671Z,6.70
2023-01-04T02:11:32.550Z,6.70
2023-01-04T02:14:18.693Z,6.69
2023-01-04T02:17:17.663Z,6.70
2023-01-04T02:19:45.416Z,6.66
2023-01-04T02:22:24.854Z,6.61
2023-01-04T02:25:04.411Z,6.61
2023-01-04T02:27:35.105Z,6.63
2023-01-04T02:30:12.668Z,6.65
2023-01-04T02:32:46.883Z,6.66
2023-01-04T02:35:14.544Z,6.65
2023-01-04T02:38:06.617Z,6.68
2023-01-04T02:40:57.809Z,6.66
2023-01-04T02:44:14.839Z,6.65
2023-01-04T02:46:50.410Z,6.65
2023-01-04T02:49:36.775Z,6.66
2023-01-04T02:52:04.619Z,6.67
2023-01-04T02:54:33.613Z,6.68
2023-01-04T02:57:34.387Z,6.65
2023-01-04T03:00:22.334Z,6.67
2023-01-04T03:03:13.675Z,6.70
2023-01-04T03:06:07.651Z,6.71
2023-01-04T03:08:56.736Z,6.71
2023-01-04T03:11:43.027Z,6.73
2023-01-04T03:14:30.785Z,6.72
2023-01-04T03:17:01.771Z,6.75
2023-01-04T03:19:48.073Z,6.76
2023-01-04T03:22:36.180Z,6.77
2023-01-04T03:25:22.407Z,6.78
2023-01-04T03:28:08.717Z,6.78
2023-01-04T03:30:55.743Z,6.77
2023-01-04T03:33:41.960Z,6.80
2023-01-04T03:36:39.887Z,6.82
2023-01-04T03:39:54.898Z,6.79
2023-01-04T03:42:48.371Z,6.79
2023-01-04T03:45:39.906Z,6.80
2023-01-04T03:48:46.176Z,6.79
2023-01-04T03:51:27.050Z,6.78
2023-01-04T03:53:57.634Z,6.75
2023-01-04T03:56:25.495Z,6.73
2023-01-04T03:58:53.276Z,6.73
2023-01-04T04:01:21.426Z,6.72
2023-01-04T04:04:07.755Z,6.71
2023-01-04T04:06:54.165Z,6.69
2023-01-04T04:09:22.060Z,6.68
2023-01-04T04:11:49.848Z,6.62
2023-01-04T04:14:17.663Z,6.61
2023-01-04T04:16:45.769Z,6.63
2023-01-04T04:19:13.582Z,6.62
2023-01-04T04:21:41.492Z,6.61
2023-01-04T04:24:09.588Z,6.64
2023-01-04T04:26:37.420Z,6.60
2023-01-04T04:29:05.148Z,6.60
2023-01-04T04:31:33.163Z,6.58
2023-01-04T04:34:00.956Z,6.57
2023-01-04T04:36:28.669Z,6.53
2023-01-04T04:38:56.419Z,6.49
2023-01-04T04:41:39.668Z,6.51
2023-01-04T04:44:09.002Z,6.47
2023-01-04T04:46:36.858Z,6.39
2023-01-04T04:49:04.930Z,6.38
2023-01-04T04:51:32.840Z,6.35
2023-01-04T04:54:00.772Z,6.33
2023-01-04T04:56:28.627Z,6.29
2023-01-04T04:58:56.379Z,6.27
2023-01-04T05:01:24.363Z,6.22
2023-01-04T05:03:52.261Z,6.17
2023-01-04T05:06:20.073Z,6.09
2023-01-04T05:08:47.791Z,6.05
2023-01-04T05:11:15.662Z,6.02
2023-01-04T05:13:43.423Z,6.03
2023-01-04T05:16:11.276Z,6.01
2023-01-04T05:18:39.090Z,5.98
2023-01-04T05:21:07.015Z,5.96
2023-01-04T05:23:34.774Z,5.93
2023-01-04T05:26:02.745Z,5.88
2023-01-04T05:28:30.513Z,5.88
2023-01-04T05:30:58.404Z,5.84
2023-01-04T05:33:28.068Z,5.80
2023-01-04T05:35:56.583Z,5.79
2023-01-04T05:38:24.587Z,5.72
2023-01-04T05:40:52.477Z,5.71
2023-01-04T05:43:20.730Z,5.70
2023-01-04T05:45:50.209Z,5.68
2023-01-04T05:48:18.521Z,5.68
2023-01-04T05:50:47.048Z,5.68
2023-01-04T05:53:15.318Z,5.64
2023-01-04T05:55:43.114Z,5.61
2023-01-04T05:58:10.945Z,5.61
2023-01-04T06:00:38.769Z,5.62
2023-01-04T06:03:06.846Z,5.64
2023-01-04T06:05:34.792Z,5.63
2023-01-04T06:08:02.588Z,5.60
2023-01-04T06:10:30.395Z,5.59
2023-01-04T06:12:58.185Z,5.61
2023-01-04T06:15:26.039Z,5.60
2023-01-04T06:17:53.912Z,5.61
2023-01-04T06:20:21.775Z,5.60
2023-01-04T06:22:49.568Z,5.59
2023-01-04T06:25:17.360Z,5.60
2023-01-04T06:27:45.193Z,5.62
2023-01-04T06:30:13.068Z,5.65
2023-01-04T06:32:40.795Z,5.66
2023-01-04T06:35:08.839Z,5.70
2023-01-04T06:37:37.185Z,5.71
2023-01-04T06:40:05.745Z,5.72
2023-01-04T06:42:48.651Z,5.75
2023-01-04T06:45:17.087Z,5.79
2023-01-04T06:47:45.009Z,5.81
2023-01-04T06:50:13.035Z,5.83
2023-01-04T06:52:40.996Z,5.81
2023-01-04T06:55:10.578Z,5.79
2023-01-04T06:57:38.776Z,5.76
2023-01-04T07:00:07.728Z,5.72
2023-01-04T07:02:35.732Z,5.71
2023-01-04T07:05:03.956Z,5.73
2023-01-04T07:07:31.950Z,5.72
2023-01-04T07:10:03.874Z,5.73
2023-01-04T07:12:37.883Z,5.75
2023-01-04T07:15:38.901Z,5.81
2023-01-04T07:17:54.169Z,5.85
2023-01-04T07:20:21.958Z,5.90
2023-01-04T07:22:49.868Z,5.94
2023-01-04T07:25:17.781Z,5.96
2023-01-04T07:27:45.708Z,6.01
2023-01-04T07:30:14.029Z,6.01
2023-01-04T07:32:41.900Z,6.03
2023-01-04T07:35:10.366Z,6.07
2023-01-04T07:37:38.420Z,6.13
2023-01-04T07:40:07.199Z,6.22
2023-01-04T07:42:35.185Z,6.45
2023-01-04T07:45:03.240Z,6.86
2023-01-04T07:47:31.323Z,7.06
2023-01-04T07:49:59.907Z,7.07
2023-01-04T07:52:28.466Z,7.03
2023-01-04T07:54:56.459Z,6.90
2023-01-04T07:57:24.503Z,6.87
2023-01-04T07:59:53.061Z,6.84
2023-01-04T08:02:21.596Z,6.80
2023-01-04T08:04:49.758Z,6.76
2023-01-04T08:07:18.003Z,6.80
2023-01-04T08:09:45.867Z,6.81
2023-01-04T08:12:14.013Z,6.82
2023-01-04T08:14:41.928Z,6.85
2023-01-04T08:17:09.977Z,6.90
2023-01-04T08:19:37.956Z,6.94
2023-01-04T08:22:06.202Z,7.00
2023-01-04T08:24:34.365Z,7.04
2023-01-04T08:27:02.305Z,7.08
2023-01-04T08:29:34.739Z,7.13
2023-01-04T08:32:02.700Z,7.17
2023-01-04T08:34:31.276Z,7.26
2023-01-04T08:36:59.811Z,7.35
2023-01-04T08:39:30.701Z,7.45
2023-01-04T08:42:31.532Z,7.48
2023-01-04T08:44:46.836Z,7.48
2023-01-04T08:47:14.776Z,7.53
2023-01-04T08:49:43.080Z,7.60
2023-01-04T08:52:11.473Z,7.57
2023-01-04T08:54:39.464Z,7.61
2023-01-04T08:57:07.507Z,7.62
2023-01-04T08:59:35.550Z,7.63
2023-01-04T09:02:06.008Z,7.60
2023-01-04T09:04:34.460Z,7.62
2023-01-04T09:07:02.452Z,7.64
2023-01-04T09:09:31.289Z,7.64
2023-01-04T09:12:00.898Z,7.65
2023-01-04T09:14:29.067Z,7.65
2023-01-04T09:16:56.996Z,7.64
2023-01-04T09:19:25.116Z,7.66
2023-01-04T09:21:53.147Z,7.65
2023-01-04T09:24:21.304Z,7.64
2023-01-04T09:26:49.403Z,7.67
2023-01-04T09:29:17.593Z,7.66
2023-01-04T09:31:45.564Z,7.68
2023-01-04T09:34:16.077Z,7.68
2023-01-04T09:36:46.592Z,7.67
2023-01-04T09:39:21.535Z,7.69
2023-01-04T09:42:06.005Z,7.74
2023-01-04T09:45:12.294Z,7.73
2023-01-04T09:47:43.304Z,7.77
2023-01-04T09:50:30.512Z,7.74
2023-01-04T09:53:02.262Z,7.79
2023-01-04T09:55:41.252Z,7.82
2023-01-04T09:58:13.357Z,7.81
2023-01-04T10:00:46.571Z,7.85
2023-01-04T10:03:35.891Z,7.88
2023-01-04T10:06:04.404Z,7.86
2023-01-04T10:08:32.877Z,7.90
2023-01-04T10:11:10.046Z,7.89
2023-01-04T10:13:47.941Z,7.92
2023-01-04T10:22:49.127Z,7.96
2023-01-04T10:25:27.506Z,7.99
2023-01-04T10:28:14.362Z,8.05
2023-01-04T10:30:45.303Z,8.07
2023-01-04T10:33:20.668Z,8.10
2023-01-04T10:35:49.315Z,8.15
2023-01-04T10:38:19.458Z,8.16
2023-01-04T10:40:48.757Z,8.15
2023-01-04T10:44:11.557Z,8.14
2023-01-04T10:46:44.189Z,8.13
2023-01-04T10:49:24.541Z,8.19
2023-01-04T10:52:00.113Z,8.17
2023-01-04T10:54:55.334Z,8.23
2023-01-04T10:57:35.909Z,8.21
2023-01-04T11:00:07.039Z,8.26
2023-01-04T11:02:47.179Z,8.25
2023-01-04T11:05:37.548Z,8.29
2023-01-04T11:08:23.983Z,8.26
2023-01-04T11:10:56.953Z,8.28
2023-01-04T11:13:25.364Z,8.30
2023-01-04T11:15:53.648Z,8.30
2023-01-04T11:18:21.601Z,8.33
2023-01-04T11:20:49.640Z,8.35
2023-01-04T11:23:19.301Z,8.36
2023-01-04T11:25:56.593Z,8.37
2023-01-04T11:28:38.788Z,8.39
2023-01-04T11:31:10.530Z,8.41
2023-01-04T11:33:57.625Z,8.41
2023-01-04T11:36:37.986Z,8.44
2023-01-04T11:39:27.341Z,8.46
2023-01-04T11:42:05.890Z,8.46
2023-01-04T11:44:34.921Z,8.51
2023-01-04T11:47:10.192Z,8.58
2023-01-04T11:49:38.123Z,8.61
2023-01-04T11:52:06.728Z,8.62
2023-01-04T11:54:34.658Z,8.61
2023-01-04T11:57:12.059Z,8.67
2023-01-04T11:59:40.469Z,8.68
2023-01-04T12:02:28.581Z,8.73
2023-01-04T12:05:01.097Z,8.74
2023-01-04T12:07:33.032Z,8.75
2023-01-04T12:10:01.837Z,8.77
2023-01-04T12:12:33.838Z,8.81
2023-01-04T12:15:04.216Z,8.82
2023-01-04T12:17:44.400Z,8.84
2023-01-04T12:20:19.615Z,8.84
2023-01-04T12:22:48.038Z,8.89
2023-01-04T12:25:34.226Z,8.88
2023-01-04T12:28:02.273Z,8.92
2023-01-04T12:30:46.989Z,8.93
2023-01-04T12:33:44.614Z,8.94
2023-01-04T12:36:16.112Z,8.93
2023-01-04T12:38:56.464Z,8.93
2023-01-04T12:41:46.491Z,8.92
2023-01-04T12:44:36.357Z,9.07
2023-01-04T12:47:48.737Z,9.11
2023-01-04T12:50:34.936Z,9.09
2023-01-04T12:55:55.787Z,9.15
2023-01-04T12:58:57.903Z,9.17
2023-01-04T13:01:25.950Z,9.16
2023-01-04T13:04:04.304Z,9.17
2023-01-04T13:06:35.322Z,9.15
2023-01-04T13:09:03.601Z,9.14
2023-01-04T13:11:41.954Z,9.09
2023-01-04T13:14:12.786Z,9.07
2023-01-04T13:17:08.998Z,9.08
2023-01-04T13:19:39.433Z,9.08
2023-01-04T13:22:26.603Z,9.13
2023-01-04T13:24:58.935Z,9.15
2023-01-04T13:27:27.692Z,9.09
2023-01-04T13:29:55.970Z,9.12
2023-01-04T13:32:30.552Z,9.16
2023-01-04T13:35:15.251Z,9.20
2023-01-04T13:37:47.729Z,9.15
2023-01-04T13:40:15.678Z,9.16
2023-01-04T13:42:45.577Z,9.15
2023-01-04T13:45:43.430Z,9.12
2023-01-04T13:48:13.691Z,9.11
2023-01-04T13:50:45.400Z,9.09
2023-01-04T13:53:22.821Z,9.14
2023-01-04T13:55:54.734Z,9.15
2023-01-04T13:58:24.333Z,9.14
2023-01-04T14:01:04.026Z,9.15
2023-01-04T14:03:37.849Z,9.19
2023-01-04T14:06:11.741Z,9.18
2023-01-04T14:08:53.189Z,9.18
2023-01-04T14:11:42.954Z,9.18
2023-01-04T14:14:26.455Z,9.16
2023-01-04T14:16:54.873Z,9.22
2023-01-04T14:20:09.018Z,9.23
2023-01-04T14:22:45.776Z,9.25
2023-01-04T14:25:32.146Z,9.25
2023-01-04T14:28:26.083Z,9.27
2023-01-04T14:31:23.722Z,9.25
2023-01-04T14:33:52.459Z,9.28
2023-01-04T14:36:31.406Z,9.29
2023-01-04T14:39:07.896Z,9.29
2023-01-04T14:41:53.411Z,9.30
2023-01-04T14:44:32.069Z,9.30
2023-01-04T14:47:01.531Z,9.29
2023-01-04T14:49:29.798Z,9.26
2023-01-04T14:52:00.304Z,9.23
2023-01-04T14:54:29.180Z,9.25
2023-01-04T14:56:58.243Z,9.22
2023-01-04T14:59:26.748Z,9.24
2023-01-04T15:01:55.645Z,9.16
2023-01-04T15:04:24.170Z,9.18
2023-01-04T15:07:01.478Z,9.18
2023-01-04T15:09:30.352Z,9.20
2023-01-04T15:11:58.598Z,9.20
2023-01-04T15:14:26.447Z,9.23
2023-01-04T15:16:54.440Z,9.22
2023-01-04T15:19:22.979Z,9.23
2023-01-04T15:21:50.839Z,9.22
2023-01-04T15:24:18.751Z,9.17
2023-01-04T15:26:46.713Z,9.13
2023-01-04T15:29:14.928Z,9.12
2023-01-04T15:31:45.166Z,9.12
2023-01-04T15:34:15.639Z,9.12
2023-01-04T15:36:43.707Z,9.15
2023-01-04T15:39:15.354Z,9.14
2023-01-04T15:42:02.044Z,9.08
2023-01-04T15:44:29.922Z,9.10
2023-01-04T15:47:00.459Z,9.09
2023-01-04T15:49:30.972Z,9.06
2023-01-04T15:51:58.865Z,9.07
2023-01-04T15:54:28.002Z,9.04
2023-01-04T15:57:01.982Z,9.03
2023-01-04T15:59:30.039Z,9.03
2023-01-04T16:01:58.713Z,9.04
2023-01-04T16:04:28.101Z,9.05
2023-01-04T16:06:56.261Z,9.03
2023-01-04T16:09:24.434Z,9.03
2023-01-04T16:12:13.772Z,9.04
2023-01-04T16:15:00.100Z,9.05
2023-01-04T16:17:28.363Z,9.05
2023-01-04T16:19:56.265Z,9.03
2023-01-04T16:22:24.498Z,9.06
2023-01-04T16:25:22.495Z,9.05
2023-01-04T16:27:40.689Z,9.05
2023-01-04T16:30:10.731Z,9.05
2023-01-04T16:32:45.218Z,9.07
2023-01-04T16:35:13.466Z,9.07
2023-01-04T16:37:44.835Z,9.09
2023-01-04T16:40:13.594Z,9.10
2023-01-04T16:42:41.774Z,9.12
2023-01-04T16:45:26.197Z,9.11
2023-01-04T16:47:55.209Z,9.13
2023-01-04T16:50:23.077Z,9.14
2023-01-04T16:52:53.911Z,9.14
2023-01-04T16:55:54.269Z,9.16
2023-01-04T16:58:22.473Z,9.19
2023-01-04T17:00:50.691Z,9.20
2023-01-04T17:03:18.606Z,9.21
2023-01-04T17:05:46.659Z,9.20
2023-01-04T17:08:14.774Z,9.21
2023-01-04T17:10:42.827Z,9.22
2023-01-04T17:13:10.755Z,9.20
2023-01-04T17:15:43.344Z,9.19
2023-01-04T17:18:14.004Z,9.19
2023-01-04T17:21:35.476Z,9.19
2023-01-04T17:24:03.943Z,9.15
2023-01-04T17:26:36.069Z,9.15
2023-01-04T17:29:04.128Z,9.18
2023-01-04T17:31:34.661Z,9.18
2023-01-04T17:34:04.026Z,9.20
2023-01-04T17:36:32.343Z,9.20
2023-01-04T17:39:01.640Z,9.19
2023-01-04T17:41:33.290Z,9.20
2023-01-04T17:44:03.424Z,9.20
2023-01-04T17:46:33.229Z,9.22
2023-01-04T17:49:23.929Z,9.24
2023-01-04T17:51:58.803Z,9.22
2023-01-04T17:54:35.848Z,9.24
2023-01-04T17:57:03.725Z,9.27
2023-01-04T17:59:31.700Z,9.26
2023-01-04T18:01:59.992Z,9.25
2023-01-04T18:04:28.127Z,9.22
2023-01-04T18:06:56.334Z,9.20
2023-01-04T18:09:26.157Z,9.17
2023-01-04T18:11:54.532Z,9.16
2023-01-04T18:14:23.896Z,9.18
2023-01-04T18:16:58.677Z,9.20
2023-01-04T18:19:31.255Z,9.21
2023-01-04T18:21:59.455Z,9.20
2023-01-04T18:24:37.814Z,9.20
2023-01-04T18:27:21.576Z,9.20
2023-01-04T18:29:50.520Z,9.20
2023-01-04T18:32:19.350Z,9.22
2023-01-04T18:34:48.039Z,9.22
2023-01-04T18:37:19.337Z,9.23
2023-01-04T18:39:49.199Z,9.24
2023-01-04T18:42:20.180Z,9.26
2023-01-04T18:44:51.024Z,9.30
2023-01-04T18:47:33.205Z,9.34
2023-01-04T18:53:11.183Z,9.40
2023-01-04T18:55:42.120Z,9.41
2023-01-04T18:58:21.426Z,9.43
2023-01-04T19:00:51.901Z,9.46
2023-01-04T19:04:59.386Z,9.48
2023-01-04T19:07:34.202Z,9.50
2023-01-04T19:10:02.171Z,9.54
2023-01-04T19:12:34.384Z,9.55
2023-01-04T19:15:03.639Z,9.58
2023-01-04T19:20:18.166Z,9.61
2023-01-04T19:22:46.091Z,9.63
2023-01-04T19:25:14.298Z,9.69
2023-01-04T19:30:27.664Z,9.71
2023-01-04T19:36:45.342Z,9.73
2023-01-04T19:39:14.951Z,9.70
2023-01-04T19:41:43.574Z,9.71
2023-01-04T19:44:24.321Z,9.73
2023-01-04T19:46:52.427Z,9.74
2023-01-04T19:49:23.667Z,9.75
2023-01-04T19:51:52.961Z,9.78
2023-01-04T19:54:25.094Z,9.82
2023-01-04T19:56:53.565Z,9.83
2023-01-04T19:59:21.977Z,9.86
2023-01-04T20:01:52.758Z,9.88
2023-01-04T20:04:51.189Z,9.93
2023-01-04T20:07:41.538Z,9.96
2023-01-04T20:10:14.566Z,9.99
2023-01-04T20:12:43.339Z,10.04
2023-01-04T20:15:18.515Z,10.05
2023-01-04T20:17:46.712Z,10.08
2023-01-04T20:26:43.613Z,10.16
2023-01-04T20:29:12.033Z,10.17
2023-01-04T20:31:45.358Z,10.19
2023-01-04T20:34:14.243Z,10.20
2023-01-04T20:36:43.698Z,10.22
2023-01-04T20:39:11.685Z,10.25
2023-01-04T20:41:49.604Z,10.28
2023-01-04T20:44:20.779Z,10.29
2023-01-04T20:46:48.936Z,10.30
2023-01-04T20:49:17.056Z,10.30
2023-01-04T20:51:45.014Z,10.32
2023-01-04T20:54:12.917Z,10.33
2023-01-04T20:56:41.652Z,10.31
2023-01-04T20:59:11.763Z,10.33
2023-01-04T21:01:39.967Z,10.35
2023-01-04T21:04:09.632Z,10.37
2023-01-04T21:06:45.647Z,10.41
2023-01-04T21:09:14.788Z,10.42
2023-01-04T21:11:47.334Z,10.44
2023-01-04T21:14:15.439Z,10.46
2023-01-04T21:16:48.762Z,10.48
2023-01-04T21:19:22.580Z,10.49
2023-01-04T21:21:52.128Z,10.50
2023-01-04T21:24:20.625Z,10.52
2023-01-04T21:26:48.771Z,10.54
2023-01-04T21:29:16.899Z,10.55
2023-01-04T21:31:45.782Z,10.57
2023-01-04T21:34:18.262Z,10.58
2023-01-04T21:36:49.380Z,10.59
2023-01-04T21:39:18.468Z,10.59
2023-01-04T21:41:48.370Z,10.61
2023-01-04T21:44:16.822Z,10.62
2023-01-04T21:46:47.930Z,10.61
2023-01-04T21:49:18.775Z,10.61
2023-01-04T21:51:47.477Z,10.63
2023-01-04T21:54:15.586Z,10.62
2023-01-04T21:59:34.863Z,10.64
2023-01-04T22:02:03.259Z,10.61
2023-01-04T22:04:32.408Z,10.59
2023-01-04T22:10:35.575Z,10.57
2023-01-04T22:13:12.754Z,10.54
2023-01-04T22:15:42.669Z,10.53
2023-01-04T22:18:39.555Z,10.52
2023-01-04T22:21:10.800Z,10.52
2023-01-04T22:27:18.027Z,10.50
2023-01-04T22:30:02.005Z,10.52
2023-01-04T22:32:59.700Z,10.54
2023-01-04T22:35:51.828Z,10.57
2023-01-04T22:41:53.922Z,10.56
2023-01-04T22:45:11.010Z,10.57
2023-01-04T22:47:48.805Z,10.56
2023-01-04T22:47:58.721Z,10.56
2023-01-04T22:51:20.468Z,10.52
2023-01-04T22:53:46.771Z,10.54
2023-01-04T22:56:20.820Z,10.57
2023-01-04T22:58:53.364Z,10.56
2023-01-04T23:01:30.669Z,10.55
2023-01-04T23:03:59.805Z,10.55
2023-01-04T23:06:28.195Z,10.54
2023-01-04T23:09:06.451Z,10.52
2023-01-04T23:11:35.353Z,10.50
2023-01-04T23:14:04.108Z,10.50
2023-01-04T23:16:33.374Z,10.51
2023-01-04T23:19:03.382Z,10.49
2023-01-04T23:21:31.306Z,10.49
2023-01-04T23:23:59.743Z,10.51
2023-01-04T23:26:28.667Z,10.51
2023-01-04T23:28:57.025Z,10.51
2023-01-04T23:31:26.019Z,10.53
2023-01-04T23:33:55.507Z,10.50
2023-01-04T23:36:26.949Z,10.49
2023-01-04T23:38:57.157Z,10.51
2023-01-04T23:41:46.566Z,10.49
2023-01-04T23:44:25.465Z,10.49
2023-01-04T23:46:55.632Z,10.48
2023-01-04T23:49:24.151Z,10.46
2023-01-04T23:51:52.196Z,10.45
2023-01-04T23:54:20.210Z,10.44
2023-01-04T23:56:48.182Z,10.45
2023-01-04T23:59:16.138Z,10.43
